createdAt,value
2023-01-29T00:00:10.601Z,68.72
2023-01-29T00:02:39.996Z,69.10
2023-01-29T00:05:26.005Z,69.12
2023-01-29T00:07:55.097Z,68.03
2023-01-29T00:10:21.991Z,67.97
2023-01-29T00:12:48.765Z,68.15
2023-01-29T00:15:15.524Z,68.58
2023-01-29T00:17:42.433Z,67.75
2023-01-29T00:20:09.843Z,67.50
2023-01-29T00:22:36.849Z,66.91
2023-01-29T00:25:03.780Z,66.58
2023-01-29T00:27:30.588Z,66.34
2023-01-29T00:30:09.443Z,66.58
2023-01-29T00:32:36.458Z,67.11
2023-01-29T00:35:03.780Z,67.42
2023-01-29T00:37:30.972Z,66.80
2023-01-29T00:39:57.844Z,66.67
2023-01-29T00:42:43.711Z,67.16
2023-01-29T00:45:12.133Z,67.72
2023-01-29T00:47:38.876Z,67.53
2023-01-29T00:50:10.817Z,68.99
2023-01-29T00:52:38.541Z,68.44
2023-01-29T00:55:06.484Z,67.32
2023-01-29T00:57:35.617Z,67.15
2023-01-29T01:00:04.340Z,68.45
2023-01-29T01:02:49.459Z,68.27
2023-01-29T01:05:18.374Z,68.40
2023-01-29T01:07:53.330Z,69.08
2023-01-29T01:10:32.358Z,67.57
2023-01-29T01:13:05.187Z,68.59
2023-01-29T01:15:35.256Z,67.79
2023-01-29T01:18:04.474Z,69.01
2023-01-29T01:20:34.394Z,68.89
2023-01-29T01:23:01.183Z,67.76
2023-01-29T01:25:28.116Z,67.03
2023-01-29T01:27:57.177Z,67.94
2023-01-29T01:30:25.194Z,68.42
2023-01-29T01:32:52.655Z,68.70
2023-01-29T01:35:19.560Z,69.28
2023-01-29T01:37:46.435Z,70.49
2023-01-29T01:40:19.746Z,70.99
2023-01-29T01:42:50.816Z,70.88
2023-01-29T01:45:35.665Z,71.69
2023-01-29T01:48:25.063Z,72.67
2023-01-29T01:51:01.548Z,73.61
2023-01-29T01:53:38.594Z,74.04
2023-01-29T01:56:09.438Z,73.32
2023-01-29T01:58:47.891Z,73.42
2023-01-29T02:01:15.361Z,73.26
2023-01-29T02:04:12.369Z,73.04
2023-01-29T02:06:59.461Z,72.48
2023-01-29T02:09:38.940Z,72.38
2023-01-29T02:12:11.182Z,73.99
2023-01-29T02:14:40.469Z,73.85
2023-01-29T02:17:09.884Z,73.04
2023-01-29T02:19:58.524Z,73.06
2023-01-29T02:22:56.375Z,75.30
2023-01-29T02:25:47.181Z,75.17
2023-01-29T02:28:28.087Z,75.68
2023-01-29T02:31:19.358Z,75.91
2023-01-29T02:33:59.723Z,76.50
2023-01-29T02:36:40.999Z,76.53
2023-01-29T02:39:32.539Z,76.43
2023-01-29T02:42:20.391Z,76.57
2023-01-29T02:45:04.382Z,76.25
2023-01-29T02:47:35.327Z,76.19
2023-01-29T02:50:13.122Z,77.41
2023-01-29T02:52:49.690Z,78.23
2023-01-29T02:55:36.743Z,78.11
2023-01-29T02:58:17.467Z,78.54
2023-01-29T03:00:46.965Z,77.40
2023-01-29T03:03:19.607Z,78.03
2023-01-29T03:05:58.880Z,78.79
2023-01-29T03:08:43.330Z,80.06
2023-01-29T03:11:15.585Z,79.94
2023-01-29T03:13:55.912Z,78.67
2023-01-29T03:16:28.164Z,78.00
2023-01-29T03:19:04.750Z,77.85
2023-01-29T03:21:55.230Z,78.13
2023-01-29T03:24:58.455Z,78.72
2023-01-29T03:27:50.353Z,79.30
2023-01-29T03:30:37.751Z,79.43
2023-01-29T03:33:26.472Z,78.51
2023-01-29T03:36:00.913Z,77.79
2023-01-29T03:38:29.793Z,79.02
2023-01-29T03:41:06.606Z,78.78
2023-01-29T03:43:33.495Z,79.19
2023-01-29T03:46:08.447Z,77.85
2023-01-29T03:48:57.173Z,77.63
2023-01-29T03:51:23.893Z,77.30
2023-01-29T03:54:09.883Z,77.09
2023-01-29T03:56:37.608Z,76.55
2023-01-29T03:59:28.499Z,76.66
2023-01-29T04:02:22.034Z,76.99
2023-01-29T04:04:52.006Z,77.64
2023-01-29T04:07:24.659Z,78.46
2023-01-29T04:10:06.063Z,77.35
2023-01-29T04:12:40.361Z,76.96
2023-01-29T04:15:11.213Z,76.44
2023-01-29T04:17:42.884Z,75.21
2023-01-29T04:20:16.844Z,75.25
2023-01-29T04:22:51.954Z,75.17
2023-01-29T04:25:32.362Z,76.06
2023-01-29T04:28:17.801Z,76.15
2023-01-29T04:31:02.979Z,77.07
2023-01-29T04:33:49.076Z,78.02
2023-01-29T04:36:28.206Z,78.08
2023-01-29T04:39:06.047Z,79.77
2023-01-29T04:42:09.736Z,80.31
2023-01-29T04:44:49.868Z,80.58
2023-01-29T04:47:38.309Z,79.99
2023-01-29T04:50:33.898Z,79.63
2023-01-29T04:53:05.673Z,79.74
2023-01-29T04:55:51.536Z,80.10
2023-01-29T04:58:42.052Z,78.77
2023-01-29T05:01:13.465Z,79.23
2023-01-29T05:03:44.804Z,79.37
2023-01-29T05:06:12.662Z,78.18
2023-01-29T05:08:41.232Z,78.39
2023-01-29T05:11:08.363Z,77.33
2023-01-29T05:13:39.566Z,78.32
2023-01-29T05:16:28.285Z,77.13
2023-01-29T05:18:55.485Z,77.17
2023-01-29T05:21:23.404Z,78.10
2023-01-29T05:24:16.210Z,78.07
2023-01-29T05:27:05.167Z,77.68
2023-01-29T05:29:31.981Z,77.33
2023-01-29T05:31:58.904Z,76.12
2023-01-29T05:34:26.119Z,75.71
2023-01-29T05:36:53.114Z,75.53
2023-01-29T05:39:19.982Z,76.46
2023-01-29T05:41:46.792Z,76.39
2023-01-29T05:44:13.792Z,76.90
2023-01-29T05:46:40.610Z,75.78
2023-01-29T05:49:07.451Z,75.97
2023-01-29T05:51:34.198Z,76.02
2023-01-29T05:54:01.252Z,76.06
2023-01-29T05:56:28.023Z,76.06
2023-01-29T05:58:55.956Z,77.71
2023-01-29T06:01:26.179Z,77.22
2023-01-29T06:03:52.985Z,77.20
2023-01-29T06:06:19.765Z,78.46
2023-01-29T06:08:46.889Z,78.19
2023-01-29T06:11:15.187Z,78.08
2023-01-29T06:13:42.282Z,78.10
2023-01-29T06:16:10.188Z,78.04
2023-01-29T06:18:37.669Z,77.99
2023-01-29T06:21:06.559Z,78.21
2023-01-29T06:23:33.401Z,78.38
2023-01-29T06:26:05.457Z,78.13
2023-01-29T06:28:32.376Z,78.54
2023-01-29T06:31:12.008Z,78.79
2023-01-29T06:33:49.986Z,79.06
2023-01-29T06:36:16.695Z,78.89
2023-01-29T06:38:43.369Z,79.04
2023-01-29T06:41:12.097Z,78.90
2023-01-29T06:43:39.446Z,78.63
2023-01-29T06:46:08.477Z,80.43
2023-01-29T06:48:35.655Z,80.18
2023-01-29T06:51:07.589Z,80.00
2023-01-29T06:53:35.814Z,80.10
2023-01-29T06:56:02.947Z,79.17
2023-01-29T06:58:29.748Z,79.28
2023-01-29T07:01:04.599Z,78.17
2023-01-29T07:03:31.454Z,77.99
2023-01-29T07:05:58.270Z,78.36
2023-01-29T07:08:25.062Z,77.16
2023-01-29T07:10:51.766Z,76.69
2023-01-29T07:13:18.552Z,78.68
2023-01-29T07:15:45.252Z,78.01
2023-01-29T07:18:12.655Z,77.49
2023-01-29T07:20:40.793Z,77.56
2023-01-29T07:23:11.571Z,78.28
2023-01-29T07:25:39.586Z,77.99
2023-01-29T07:28:12.672Z,78.14
2023-01-29T07:30:39.644Z,77.04
2023-01-29T07:33:08.675Z,76.46
2023-01-29T07:35:40.601Z,77.14
2023-01-29T07:38:09.217Z,76.92
2023-01-29T07:40:36.497Z,76.60
2023-01-29T07:43:06.013Z,75.60
2023-01-29T07:45:35.689Z,75.52
2023-01-29T07:48:04.945Z,75.12
2023-01-29T07:50:33.067Z,75.76
2023-01-29T07:53:00.323Z,76.00
2023-01-29T07:55:27.558Z,75.10
2023-01-29T07:58:04.259Z,76.26
2023-01-29T08:00:32.505Z,76.46
2023-01-29T08:03:07.989Z,76.52
2023-01-29T08:05:34.908Z,76.00
2023-01-29T08:08:07.002Z,76.28
2023-01-29T08:10:39.431Z,75.92
2023-01-29T08:13:07.366Z,75.27
2023-01-29T08:15:36.067Z,75.55
2023-01-29T08:18:05.174Z,75.10
2023-01-29T08:20:32.179Z,75.37
2023-01-29T08:23:08.567Z,75.23
2023-01-29T08:25:44.314Z,74.23
2023-01-29T08:28:12.476Z,74.03
2023-01-29T08:30:39.603Z,73.67
2023-01-29T08:33:06.911Z,71.00
2023-01-29T08:35:48.762Z,72.30
2023-01-29T08:38:15.893Z,71.81
2023-01-29T08:40:42.915Z,72.71
2023-01-29T08:43:11.509Z,73.03
2023-01-29T08:45:43.064Z,73.10
2023-01-29T08:48:10.929Z,72.99
2023-01-29T08:50:38.226Z,72.68
2023-01-29T08:53:10.210Z,72.50
2023-01-29T08:55:40.925Z,70.02
2023-01-29T08:58:08.995Z,69.81
2023-01-29T09:00:36.181Z,69.68
2023-01-29T09:03:03.936Z,68.89
2023-01-29T09:05:34.312Z,67.49
2023-01-29T09:08:01.085Z,68.16
2023-01-29T09:10:28.076Z,63.03
2023-01-29T09:12:54.958Z,64.22
2023-01-29T09:15:22.339Z,63.14
2023-01-29T09:17:51.920Z,64.26
2023-01-29T09:20:22.268Z,64.25
2023-01-29T09:22:50.781Z,65.81
2023-01-29T09:25:18.017Z,66.72
2023-01-29T09:27:45.131Z,66.58
2023-01-29T09:30:12.796Z,66.49
2023-01-29T09:32:55.246Z,65.21
2023-01-29T09:35:23.706Z,67.21
2023-01-29T09:37:51.020Z,67.10
2023-01-29T09:40:45.793Z,67.25
2023-01-29T09:43:20.516Z,66.69
2023-01-29T09:45:57.385Z,67.05
2023-01-29T09:48:28.886Z,66.00
2023-01-29T09:50:58.715Z,66.75
2023-01-29T09:53:30.685Z,66.67
2023-01-29T09:56:04.408Z,65.00
2023-01-29T09:58:36.167Z,65.96
2023-01-29T10:01:14.143Z,62.35
2023-01-29T10:04:08.033Z,63.81
2023-01-29T10:06:47.239Z,65.47
2023-01-29T10:09:42.218Z,64.37
2023-01-29T10:12:52.648Z,64.29
2023-01-29T10:15:45.505Z,62.25
2023-01-29T10:18:48.160Z,60.81
2023-01-29T10:21:48.885Z,62.07
2023-01-29T10:24:33.025Z,61.39
2023-01-29T10:27:01.993Z,60.84
2023-01-29T10:29:31.617Z,59.76
2023-01-29T10:32:05.200Z,60.51
2023-01-29T10:34:46.937Z,62.33
2023-01-29T10:37:21.690Z,61.99
2023-01-29T10:39:48.801Z,60.34
2023-01-29T10:42:21.293Z,60.51
2023-01-29T10:45:07.743Z,60.11
2023-01-29T10:47:34.572Z,56.40
2023-01-29T10:50:19.520Z,55.68
2023-01-29T10:53:00.956Z,56.81
2023-01-29T10:55:43.635Z,57.12
2023-01-29T10:59:05.998Z,56.65
2023-01-29T11:01:32.859Z,59.18
2023-01-29T11:04:06.445Z,59.96
2023-01-29T11:06:37.005Z,60.52
2023-01-29T11:12:15.865Z,59.88
2023-01-29T11:14:48.626Z,59.79
2023-01-29T11:17:20.841Z,59.76
2023-01-29T11:19:51.365Z,59.30
2023-01-29T11:22:23.487Z,57.42
2023-01-29T11:25:11.467Z,58.00
2023-01-29T11:27:52.371Z,59.07
2023-01-29T11:30:42.776Z,59.76
2023-01-29T11:33:12.707Z,60.89
2023-01-29T11:35:39.666Z,60.66
2023-01-29T11:38:14.297Z,59.72
2023-01-29T11:40:41.476Z,61.20
2023-01-29T11:43:27.161Z,61.94
2023-01-29T11:45:57.655Z,61.01
2023-01-29T11:48:59.194Z,61.96
2023-01-29T11:51:34.408Z,61.22
2023-01-29T11:54:03.883Z,61.27
2023-01-29T11:56:45.574Z,60.02
2023-01-29T11:59:39.962Z,59.21
2023-01-29T12:02:34.271Z,60.37
2023-01-29T12:05:15.522Z,60.39
2023-01-29T12:07:44.282Z,60.61
2023-01-29T12:10:33.033Z,60.67
2023-01-29T12:13:07.414Z,59.40
2023-01-29T12:15:34.340Z,58.39
2023-01-29T12:18:22.862Z,59.09
2023-01-29T12:20:56.325Z,59.52
2023-01-29T12:23:48.778Z,58.55
2023-01-29T12:26:24.524Z,59.94
2023-01-29T12:29:17.175Z,59.27
2023-01-29T12:32:19.952Z,59.20
2023-01-29T12:34:59.179Z,60.09
2023-01-29T12:37:52.147Z,59.28
2023-01-29T12:40:21.818Z,59.20
2023-01-29T12:42:52.147Z,58.92
2023-01-29T12:45:23.221Z,58.41
2023-01-29T12:47:58.550Z,58.55
2023-01-29T12:50:32.689Z,58.39
2023-01-29T12:53:13.094Z,57.28
2023-01-29T12:55:45.349Z,57.95
2023-01-29T12:58:20.686Z,57.91
2023-01-29T13:00:54.711Z,58.04
2023-01-29T13:03:42.228Z,58.88
2023-01-29T13:06:20.869Z,57.56
2023-01-29T13:08:54.922Z,56.63
2023-01-29T13:11:31.318Z,56.07
2023-01-29T13:14:24.235Z,56.71
2023-01-29T13:16:55.835Z,56.77
2023-01-29T13:19:34.387Z,56.26
2023-01-29T13:22:05.472Z,56.60
2023-01-29T13:24:44.371Z,55.93
2023-01-29T13:27:35.042Z,54.10
2023-01-29T13:30:02.733Z,55.97
2023-01-29T13:32:31.923Z,56.32
2023-01-29T13:35:04.755Z,57.65
2023-01-29T13:37:38.317Z,56.90
2023-01-29T13:40:07.927Z,55.65
2023-01-29T13:42:45.614Z,55.35
2023-01-29T13:45:21.170Z,54.76
2023-01-29T13:47:50.182Z,54.72
2023-01-29T13:50:42.574Z,54.24
2023-01-29T13:53:21.437Z,54.95
2023-01-29T13:55:48.842Z,54.56
2023-01-29T13:58:44.121Z,55.20
2023-01-29T14:01:11.139Z,55.79
2023-01-29T14:03:56.685Z,55.80
2023-01-29T14:06:41.640Z,55.67
2023-01-29T14:09:33.356Z,56.79
2023-01-29T14:12:00.357Z,56.70
2023-01-29T14:15:16.416Z,56.71
2023-01-29T14:18:06.307Z,57.01
2023-01-29T14:20:45.582Z,56.60
2023-01-29T14:23:41.624Z,56.82
2023-01-29T14:26:34.934Z,56.45
2023-01-29T14:29:04.505Z,55.11
2023-01-29T14:31:35.445Z,56.46
2023-01-29T14:34:04.984Z,56.64
2023-01-29T14:36:43.427Z,56.94
2023-01-29T14:39:30.091Z,57.83
2023-01-29T14:41:58.417Z,57.43
2023-01-29T14:44:48.672Z,56.81
2023-01-29T14:47:20.615Z,55.88
2023-01-29T14:49:56.775Z,56.56
2023-01-29T14:52:44.353Z,57.01
2023-01-29T14:55:42.034Z,57.00
2023-01-29T14:58:21.987Z,56.61
2023-01-29T15:00:53.558Z,56.33
2023-01-29T15:03:30.379Z,56.43
2023-01-29T15:05:59.652Z,56.95
2023-01-29T15:08:37.960Z,57.58
2023-01-29T15:11:31.245Z,57.10
2023-01-29T15:14:24.154Z,57.04
2023-01-29T15:16:54.459Z,57.35
2023-01-29T15:19:50.552Z,57.61
2023-01-29T15:22:22.404Z,57.08
2023-01-29T15:25:16.610Z,58.37
2023-01-29T15:27:46.804Z,58.07
2023-01-29T15:30:29.459Z,58.00
2023-01-29T15:32:56.816Z,58.48
2023-01-29T15:35:37.272Z,57.81
2023-01-29T15:38:14.536Z,58.52
2023-01-29T15:40:41.479Z,58.97
2023-01-29T15:43:23.068Z,59.08
2023-01-29T15:45:52.120Z,59.76
2023-01-29T15:48:23.107Z,59.62
2023-01-29T15:50:51.244Z,59.69
2023-01-29T15:53:21.586Z,60.28
2023-01-29T15:55:48.973Z,60.72
2023-01-29T15:58:22.957Z,60.79
2023-01-29T16:00:55.673Z,61.29
2023-01-29T16:03:24.806Z,60.82
2023-01-29T16:05:52.748Z,61.04
2023-01-29T16:08:22.053Z,61.49
2023-01-29T16:10:54.351Z,61.57
2023-01-29T16:13:24.492Z,62.02
2023-01-29T16:16:01.884Z,62.17
2023-01-29T16:18:35.361Z,63.00
2023-01-29T16:21:14.589Z,63.15
2023-01-29T16:23:48.725Z,63.89
2023-01-29T16:26:19.930Z,64.81
2023-01-29T16:28:47.639Z,65.62
2023-01-29T16:31:26.255Z,65.90
2023-01-29T16:33:53.879Z,66.11
2023-01-29T16:36:23.847Z,66.15
2023-01-29T16:38:54.795Z,66.82
2023-01-29T16:41:21.609Z,66.80
2023-01-29T16:43:58.970Z,67.69
2023-01-29T16:46:37.681Z,68.09
2023-01-29T16:49:25.995Z,68.41
2023-01-29T16:51:54.770Z,68.77
2023-01-29T16:54:24.872Z,68.79
2023-01-29T16:57:00.242Z,69.11
2023-01-29T16:59:35.198Z,68.73
2023-01-29T17:02:03.843Z,68.67
2023-01-29T17:04:30.829Z,69.17
2023-01-29T17:07:01.419Z,69.77
2023-01-29T17:09:35.234Z,69.96
2023-01-29T17:12:06.800Z,70.14
2023-01-29T17:14:34.518Z,70.83
2023-01-29T17:17:37.700Z,71.21
2023-01-29T17:20:16.411Z,70.76
2023-01-29T17:22:44.894Z,70.98
2023-01-29T17:25:15.651Z,70.84
2023-01-29T17:27:51.563Z,70.82
2023-01-29T17:30:22.554Z,70.72
2023-01-29T17:32:49.576Z,71.28
2023-01-29T17:35:20.198Z,71.22
2023-01-29T17:37:47.370Z,71.59
2023-01-29T17:40:33.619Z,72.06
2023-01-29T17:43:00.667Z,72.28
2023-01-29T17:45:27.864Z,73.20
2023-01-29T17:47:54.826Z,73.13
2023-01-29T17:50:26.506Z,72.64
2023-01-29T17:52:54.122Z,72.19
2023-01-29T17:55:21.103Z,72.51
2023-01-29T17:57:48.514Z,72.03
2023-01-29T18:00:20.101Z,71.86
2023-01-29T18:02:47.540Z,72.58
2023-01-29T18:05:15.838Z,72.35
2023-01-29T18:07:45.238Z,72.10
2023-01-29T18:10:16.457Z,72.24
2023-01-29T18:12:43.606Z,71.89
2023-01-29T18:15:11.537Z,71.93
2023-01-29T18:17:38.990Z,72.45
2023-01-29T18:20:32.591Z,72.62
2023-01-29T18:23:04.168Z,72.82
2023-01-29T18:25:31.585Z,73.25
2023-01-29T18:27:58.455Z,73.93
2023-01-29T18:30:27.805Z,73.78
2023-01-29T18:32:54.760Z,73.45
2023-01-29T18:35:22.433Z,73.35
2023-01-29T18:37:49.653Z,72.48
2023-01-29T18:40:17.491Z,73.54
2023-01-29T18:42:45.399Z,74.03
2023-01-29T18:45:13.664Z,73.58
2023-01-29T18:47:41.210Z,73.29
2023-01-29T18:50:08.733Z,74.08
2023-01-29T18:52:35.595Z,75.06
2023-01-29T18:55:02.571Z,74.74
2023-01-29T18:58:25.192Z,74.50
2023-01-29T19:00:16.976Z,75.09
2023-01-29T19:02:45.458Z,74.43
2023-01-29T19:05:12.477Z,74.51
2023-01-29T19:07:39.299Z,74.91
2023-01-29T19:10:09.306Z,74.67
2023-01-29T19:12:38.238Z,74.38
2023-01-29T19:15:05.646Z,74.32
2023-01-29T19:17:33.231Z,73.71
2023-01-29T19:20:04.875Z,74.27
2023-01-29T19:22:32.316Z,74.26
2023-01-29T19:24:59.226Z,74.98
2023-01-29T19:27:30.410Z,75.67
2023-01-29T19:29:58.264Z,76.90
2023-01-29T19:32:29.066Z,76.68
2023-01-29T19:34:58.025Z,75.88
2023-01-29T19:37:25.645Z,75.54
2023-01-29T19:39:53.900Z,75.54
2023-01-29T19:42:21.107Z,75.68
2023-01-29T19:44:48.557Z,75.44
2023-01-29T19:47:15.767Z,75.12
2023-01-29T19:49:42.842Z,76.14
2023-01-29T19:52:15.052Z,76.49
2023-01-29T19:54:51.299Z,75.79
2023-01-29T19:57:18.538Z,76.93
2023-01-29T19:59:47.239Z,76.97
2023-01-29T20:02:14.644Z,77.21
2023-01-29T20:04:41.860Z,77.83
2023-01-29T20:07:09.655Z,77.67
2023-01-29T20:09:36.920Z,77.68
2023-01-29T20:12:04.215Z,76.70
2023-01-29T20:14:31.492Z,76.02
2023-01-29T20:16:58.604Z,76.78
2023-01-29T20:19:25.616Z,76.55
2023-01-29T20:21:52.946Z,77.71
2023-01-29T20:24:20.109Z,77.74
2023-01-29T20:26:47.415Z,78.94
2023-01-29T20:29:15.462Z,78.72
2023-01-29T20:31:42.657Z,79.70
2023-01-29T20:34:10.009Z,79.05
2023-01-29T20:36:37.480Z,79.21
2023-01-29T20:39:04.877Z,79.03
2023-01-29T20:41:32.056Z,79.25
2023-01-29T20:43:59.458Z,79.52
2023-01-29T20:46:27.420Z,79.68
2023-01-29T20:48:55.882Z,79.33
2023-01-29T20:51:23.561Z,79.82
2023-01-29T20:53:50.721Z,79.81
2023-01-29T20:56:18.609Z,79.52
2023-01-29T20:58:59.314Z,79.71
2023-01-29T21:01:26.576Z,78.65
2023-01-29T21:03:53.853Z,79.13
2023-01-29T21:06:21.037Z,78.93
2023-01-29T21:08:48.451Z,78.04
2023-01-29T21:11:15.802Z,79.04
2023-01-29T21:13:44.174Z,78.65
2023-01-29T21:16:11.632Z,79.40
2023-01-29T21:18:38.960Z,79.08
2023-01-29T21:21:06.292Z,78.42
2023-01-29T21:23:33.702Z,78.85
2023-01-29T21:26:05.372Z,78.74
2023-01-29T21:28:32.875Z,78.71
2023-01-29T21:31:10.722Z,79.18
2023-01-29T21:33:38.092Z,79.91
2023-01-29T21:36:05.676Z,80.27
2023-01-29T21:38:33.190Z,79.86
2023-01-29T21:41:02.682Z,80.06
2023-01-29T21:43:29.881Z,78.70
2023-01-29T21:45:58.243Z,79.63
2023-01-29T21:48:25.872Z,80.08
2023-01-29T21:50:53.474Z,79.05
2023-01-29T21:53:20.679Z,79.36
2023-01-29T21:55:47.941Z,78.78
2023-01-29T21:58:14.914Z,78.07
2023-01-29T22:00:41.794Z,78.08
2023-01-29T22:03:08.904Z,79.28
2023-01-29T22:05:35.906Z,79.41
2023-01-29T22:08:04.848Z,79.03
2023-01-29T22:10:34.075Z,79.59
2023-01-29T22:13:02.063Z,79.18
2023-01-29T22:15:29.033Z,78.05
2023-01-29T22:17:55.971Z,77.80
2023-01-29T22:20:29.839Z,77.69
2023-01-29T22:22:59.009Z,77.96
2023-01-29T22:25:26.105Z,77.38
2023-01-29T22:27:53.220Z,77.58
2023-01-29T22:30:21.740Z,77.30
2023-01-29T22:32:48.638Z,77.21
2023-01-29T22:35:15.593Z,78.45
2023-01-29T22:37:42.573Z,79.19
2023-01-29T22:40:09.791Z,79.34
2023-01-29T22:42:36.810Z,77.92
2023-01-29T22:45:03.757Z,78.34
2023-01-29T22:47:33.158Z,78.04
2023-01-29T22:49:59.958Z,78.16
2023-01-29T22:52:27.996Z,79.20
2023-01-29T22:54:54.910Z,79.06
2023-01-29T22:57:21.687Z,79.20
2023-01-29T22:59:48.569Z,80.69
2023-01-29T23:02:15.366Z,80.41
2023-01-29T23:04:42.523Z,81.46
2023-01-29T23:07:09.509Z,80.92
2023-01-29T23:09:36.743Z,79.45
2023-01-29T23:12:03.779Z,80.25
2023-01-29T23:14:30.675Z,80.24
2023-01-29T23:16:57.527Z,80.38
2023-01-29T23:19:24.508Z,80.46
2023-01-29T23:21:51.325Z,80.33
2023-01-29T23:24:18.461Z,80.71
2023-01-29T23:27:03.514Z,80.63
2023-01-29T23:29:30.312Z,79.75
2023-01-29T23:31:57.070Z,79.51
2023-01-29T23:34:23.992Z,80.34
2023-01-29T23:36:50.871Z,80.76
2023-01-29T23:39:18.429Z,80.16
2023-01-29T23:41:45.190Z,79.40
2023-01-29T23:44:12.083Z,79.28
2023-01-29T23:46:38.807Z,78.80
2023-01-29T23:49:06.057Z,78.50
2023-01-29T23:51:33.026Z,78.54
2023-01-29T23:53:59.789Z,78.94
2023-01-29T23:56:26.613Z,78.90
2023-01-29T23:58:57.647Z,80.00
